| time (UTC) | temp F | wind direction | speed knots | gust knots | rain 1hr in | rain 24hr in | rain mn in | humidity % | barometer mb |
| 20260508114504 | 62 | 275 | 0.0 | 0.0 | 0.00 | 0.00 | 0.00 | 21 | 102.0 |
| 20260508113004 | 62 | 322 | 0.0 | 0.0 | 0.00 | 0.00 | 0.00 | 21 | 102.0 |
| 20260508111503 | 60 | 339 | 0.0 | 0.0 | 0.00 | 0.00 | 0.00 | 21 | 102.0 |
| 20260508110003 | 60 | 341 | 0.0 | 0.0 | 0.00 | 0.00 | 0.00 | 22 | 102.0 |
| 20260508104503 | 60 | 344 | 0.0 | 0.0 | 0.00 | 0.00 | 0.00 | 22 | 102.0 |
| 20260508103003 | 60 | 340 | 0.0 | 0.0 | 0.00 | 0.00 | 0.00 | 23 | 102.0 |
| 20260508101503 | 58 | 351 | 0.0 | 0.0 | 0.00 | 0.00 | 0.00 | 24 | 102.0 |
| 20260508100003 | 58 | 355 | 0.0 | 0.0 | 0.00 | 0.00 | 0.00 | 26 | 102.0 |
| 20260508094503 | 58 | 335 | 0.0 | 0.0 | 0.00 | 0.00 | 0.00 | 27 | 102.0 |
| 20260508093002 | 58 | 301 | 0.0 | 0.0 | 0.00 | 0.00 | 0.00 | 28 | 102.0 |
| 20260508091502 | 57 | 349 | 0.0 | 0.0 | 0.00 | 0.00 | 0.00 | 29 | 102.0 |
| 20260508090002 | 57 | 357 | 0.0 | 0.0 | 0.00 | 0.00 | 0.00 | 28 | 102.0 |
| 20260508084502 | 57 | 18 | 0.0 | 0.0 | 0.00 | 0.00 | 0.00 | 29 | 102.0 |
| 20260508083002 | 55 | 92 | 0.0 | 0.0 | 0.00 | 0.00 | 0.00 | 29 | 102.0 |
| 20260508081502 | 55 | 328 | 0.0 | 0.0 | 0.00 | 0.00 | 0.00 | 30 | 102.0 |
| 20260508080002 | 55 | 188 | 0.0 | 0.0 | 0.00 | 0.00 | 0.00 | 29 | 102.0 |
| 20260508074501 | 55 | 353 | 0.0 | 0.0 | 0.00 | 0.00 | 0.00 | 31 | 102.0 |
| 20260508073001 | 54 | 11 | 0.0 | 0.0 | 0.00 | 0.00 | 0.00 | 32 | 102.0 |
| 20260508071501 | 54 | 248 | 0.0 | 0.0 | 0.00 | 0.00 | 0.00 | 33 | 102.0 |
| 20260508070001 | 52 | 313 | 0.0 | 0.0 | 0.00 | 0.00 | 0.00 | 36 | 102.0 |
| 20260508064501 | 50 | 14 | 0.0 | 0.0 | 0.00 | 0.00 | 0.00 | 36 | 102.0 |
| 20260508063000 | 50 | 1 | 0.0 | 0.0 | 0.00 | 0.00 | 0.00 | 38 | 102.0 |
| 20260508061500 | 48 | 203 | 0.0 | 0.0 | 0.00 | 0.00 | 0.00 | 42 | 102.0 |
| 20260508060000 | 48 | 321 | 0.0 | 0.0 | 0.00 | 0.00 | 0.00 | 43 | 102.0 |
| 20260508054505 | 46 | 269 | 0.0 | 0.0 | 0.00 | 0.00 | 0.00 | 44 | 102.0 |
| 20260508053005 | 45 | 10 | 0.0 | 0.0 | 0.00 | 0.00 | 0.00 | 50 | 102.0 |
| 20260508051504 | 43 | 91 | 0.0 | 0.0 | 0.00 | 0.00 | 0.00 | 52 | 102.0 |
| 20260508050004 | 43 | 310 | 0.0 | 0.0 | 0.00 | 0.00 | 0.00 | 56 | 102.0 |
| 20260508044504 | 41 | 55 | 0.0 | 0.0 | 0.00 | 0.00 | 0.00 | 58 | 102.0 |
| 20260508043004 | 37 | 219 | 0.0 | 0.0 | 0.00 | 0.00 | 0.00 | 65 | 102.0 |
| 20260508041504 | 36 | 144 | 0.0 | 0.0 | 0.00 | 0.00 | 0.00 | 69 | 102.0 |
| 20260508040003 | 34 | 191 | 0.0 | 0.0 | 0.00 | 0.00 | 0.00 | 70 | 102.0 |
| 20260508034502 | 34 | 129 | 0.0 | 0.0 | 0.00 | 0.00 | 0.00 | 68 | 102.0 |
| 20260508033001 | 34 | 142 | 0.0 | 0.0 | 0.00 | 0.00 | 0.00 | 69 | 102.0 |
| 20260508031500 | 34 | 155 | 0.0 | 0.0 | 0.00 | 0.00 | 0.00 | 69 | 102.0 |
| 20260508030005 | 34 | 157 | 0.0 | 0.0 | 0.00 | 0.00 | 0.00 | 67 | 102.0 |
| 20260508024504 | 34 | 129 | 0.0 | 0.0 | 0.00 | 0.00 | 0.00 | 70 | 102.0 |
| 20260508023003 | 34 | 34 | 0.0 | 0.0 | 0.00 | 0.00 | 0.00 | 68 | 102.0 |
| 20260508021502 | 36 | 124 | 0.0 | 0.0 | 0.00 | 0.00 | 0.00 | 67 | 102.0 |
| 20260508020001 | 36 | 66 | 0.0 | 0.0 | 0.00 | 0.00 | 0.00 | 69 | 102.0 |
| 20260508014501 | 36 | 50 | 0.0 | 0.0 | 0.00 | 0.00 | 0.00 | 66 | 102.0 |
| 20260508013005 | 38 | 142 | 0.0 | 0.0 | 0.00 | 0.00 | 0.00 | 64 | 102.0 |
| 20260508011504 | 38 | 129 | 0.0 | 0.0 | 0.00 | 0.00 | 0.00 | 63 | 102.0 |
| 20260508010003 | 38 | 50 | 0.0 | 0.0 | 0.00 | 0.00 | 0.00 | 61 | 102.0 |
| 20260508004502 | 38 | 129 | 0.0 | 0.0 | 0.00 | 0.00 | 0.00 | 59 | 102.0 |
| 20260508003002 | 38 | 358 | 0.0 | 0.0 | 0.00 | 0.00 | 0.00 | 56 | 102.0 |
| 20260508001501 | 38 | 348 | 0.0 | 0.0 | 0.00 | 0.00 | 0.00 | 59 | 102.0 |
| 20260508000001 | 38 | 91 | 0.0 | 0.0 | 0.00 | 0.00 | 0.00 | 59 | 102.0 |
| 20260507234501 | 38 | 169 | 0.0 | 0.0 | 0.00 | 0.00 | 0.00 | 59 | 102.0 |
| 20260507233000 | 38 | 304 | 0.0 | 0.0 | 0.00 | 0.00 | 0.00 | 61 | 102.0 |
| 20260507231504 | 38 | 37 | 0.0 | 0.0 | 0.00 | 0.00 | 0.00 | 65 | 102.0 |
| 20260507230004 | 38 | 142 | 0.0 | 0.0 | 0.00 | 0.00 | 0.00 | 62 | 102.0 |
| 20260507224504 | 39 | 103 | 0.0 | 0.0 | 0.00 | 0.00 | 0.00 | 60 | 102.0 |
| 20260507223002 | 39 | 139 | 0.0 | 0.0 | 0.00 | 0.00 | 0.00 | 61 | 102.0 |
| 20260507221502 | 39 | 103 | 0.0 | 0.0 | 0.00 | 0.00 | 0.00 | 61 | 102.0 |
| 20260507220001 | 39 | 135 | 0.0 | 0.0 | 0.00 | 0.00 | 0.00 | 58 | 102.0 |
| 20260507214505 | 39 | 224 | 0.0 | 0.0 | 0.00 | 0.00 | 0.00 | 57 | 102.0 |
| 20260507213004 | 39 | 353 | 0.0 | 0.0 | 0.00 | 0.00 | 0.00 | 56 | 102.0 |
| 20260507211504 | 39 | 55 | 0.0 | 0.0 | 0.00 | 0.00 | 0.00 | 56 | 102.0 |
| 20260507210003 | 39 | 113 | 0.0 | 0.0 | 0.00 | 0.00 | 0.00 | 56 | 102.0 |
| 20260507204502 | 39 | 107 | 0.0 | 0.0 | 0.00 | 0.00 | 0.00 | 53 | 102.0 |
| 20260507203002 | 39 | 147 | 0.0 | 0.0 | 0.00 | 0.00 | 0.00 | 52 | 102.0 |
| 20260507201501 | 39 | 240 | 0.0 | 0.0 | 0.00 | 0.00 | 0.00 | 53 | 102.0 |
| 20260507200000 | 39 | 338 | 0.0 | 0.0 | 0.00 | 0.00 | 0.00 | 52 | 102.0 |
| 20260507194504 | 41 | 142 | 0.0 | 0.0 | 0.00 | 0.00 | 0.00 | 48 | 102.0 |
| 20260507193003 | 41 | 217 | 0.0 | 0.0 | 0.00 | 0.00 | 0.00 | 44 | 102.0 |
| 20260507191503 | 43 | 37 | 0.0 | 0.0 | 0.00 | 0.00 | 0.00 | 41 | 102.0 |
| 20260507190003 | 45 | 142 | 0.0 | 0.0 | 0.00 | 0.00 | 0.00 | 41 | 102.0 |
| 20260507184501 | 45 | 22 | 0.0 | 0.0 | 0.00 | 0.00 | 0.00 | 36 | 102.0 |
| 20260507183000 | 47 | 117 | 0.0 | 0.0 | 0.00 | 0.00 | 0.00 | 34 | 101.0 |
| 20260507181504 | 48 | 50 | 0.0 | 0.0 | 0.00 | 0.00 | 0.00 | 31 | 101.0 |
| 20260507180004 | 50 | 217 | 0.0 | 0.0 | 0.00 | 0.00 | 0.00 | 28 | 101.0 |
| 20260507174504 | 50 | 217 | 0.0 | 0.0 | 0.00 | 0.00 | 0.00 | 27 | 101.0 |
| 20260507173004 | 52 | 217 | 0.0 | 0.0 | 0.00 | 0.00 | 0.00 | 28 | 101.0 |
| 20260507171503 | 52 | 229 | 0.0 | 0.0 | 0.00 | 0.00 | 0.00 | 27 | 101.0 |
| 20260507170003 | 52 | 230 | 0.0 | 0.0 | 0.00 | 0.00 | 0.00 | 27 | 101.0 |
| 20260507164503 | 53 | 214 | 0.0 | 0.0 | 0.00 | 0.00 | 0.00 | 27 | 101.0 |
| 20260507163003 | 53 | 199 | 0.0 | 0.0 | 0.00 | 0.00 | 0.00 | 26 | 101.0 |
| 20260507161503 | 53 | 249 | 0.0 | 0.0 | 0.00 | 0.00 | 0.00 | 26 | 101.0 |
| 20260507160002 | 53 | 210 | 0.0 | 0.0 | 0.00 | 0.00 | 0.00 | 25 | 101.0 |
| 20260507154502 | 55 | 196 | 0.0 | 0.0 | 0.00 | 0.00 | 0.00 | 24 | 101.0 |
| 20260507153002 | 55 | 229 | 0.0 | 0.0 | 0.00 | 0.00 | 0.00 | 25 | 101.0 |
| 20260507151502 | 55 | 278 | 0.0 | 0.0 | 0.00 | 0.00 | 0.00 | 23 | 101.0 |
| 20260507150002 | 56 | 241 | 0.0 | 0.0 | 0.00 | 0.00 | 0.00 | 21 | 101.0 |
| 20260507144501 | 56 | 253 | 0.0 | 0.0 | 0.00 | 0.00 | 0.00 | 20 | 101.0 |
| 20260507143001 | 56 | 111 | 0.0 | 0.0 | 0.00 | 0.00 | 0.00 | 21 | 101.0 |
| 20260507141501 | 56 | 271 | 0.0 | 0.0 | 0.00 | 0.00 | 0.00 | 23 | 101.0 |
| 20260507140001 | 56 | 198 | 0.0 | 0.0 | 0.00 | 0.00 | 0.00 | 21 | 101.0 |
| 20260507134501 | 56 | 234 | 0.0 | 0.0 | 0.00 | 0.00 | 0.00 | 21 | 101.0 |
| 20260507133000 | 56 | 218 | 0.0 | 0.0 | 0.00 | 0.00 | 0.00 | 20 | 101.0 |
| 20260507131500 | 56 | 210 | 0.0 | 0.0 | 0.00 | 0.00 | 0.00 | 20 | 101.0 |
| 20260507130005 | 58 | 209 | 0.0 | 0.0 | 0.00 | 0.00 | 0.00 | 22 | 101.0 |
| 20260507124505 | 58 | 217 | 0.0 | 0.0 | 0.00 | 0.00 | 0.00 | 22 | 101.0 |
| 20260507123005 | 58 | 219 | 0.0 | 0.0 | 0.00 | 0.00 | 0.00 | 23 | 101.0 |
| 20260507121505 | 58 | 215 | 0.0 | 0.0 | 0.00 | 0.00 | 0.00 | 24 | 101.0 |
| 20260507120005 | 57 | 183 | 0.0 | 0.0 | 0.00 | 0.00 | 0.00 | 23 | 101.0 |